Kansas City, MO

10:02 PM CDT on October 25, 2014 (GMT -0500)
Johnson County Executive | Change Station
CLOSE
Current Station
Airport
Location: Olathe,
Elevation: 1096 ft
Nearby Weather Stations

Elev 1096 ft 38.85 °N, 94.74 °W | Updated 9 minutes ago

Clear
Clear
68 °F
Feels Like 68 °F
N
7
Wind Variable Wind from ESE

Today
High -- | Low -- °F
--% Chance of Precip.
Yesterday
High -- | Low -- °F
Precip. -- in
7:38 AM 6:25 PM
Waxing Crescent, 5% visible
Pressure 29.98 in
Visibility 10.0 miles
Clouds Clear
Dew Point 59 °F
Humidity 73%
Rainfall 0.00 in
Snow Depth Not available.
UV 0 out of 12
Pollen 3.10 out of 12
Ozone Good
PM2.5 Moderate
Flu Activity No Activity
METAR KOJC 260253Z AUTO 11006KT 10SM CLR 20/15 A3000 RMK AO2 SLP150 T02000150 58004

More Conditions Fewer Conditions

Pressure 29.98 in
Visibility 10.0 miles
Clouds Clear
Dew Point 59 °F
Humidity 73%
Rainfall 0.00 in
Snow Depth Not available.
UV 0 out of 12
Pollen 3.10 out of 12
Ozone Good
PM2.5 Moderate
Flu Activity No Activity
METAR KOJC 260253Z AUTO 11006KT 10SM CLR 20/15 A3000 RMK AO2 SLP150 T02000150 58004

More Conditions Fewer Conditions

10-Day Weather Forecast

Almanac

Astronomy

Oct. 25, 2014 Rise Set
Actual Time 7:38 AM CDT 6:25 PM CDT
Civil Twilight 7:11 AM CDT 6:53 PM CDT
Nautical Twilight 6:39 AM CDT 7:24 PM CDT
Astronomical Twilight 6:08 AM CDT 7:55 PM CDT
Moon 9:17 AM CDT (10/25) 7:50 PM CDT (10/25)
Length of Visible Light 11h 42m
Length of Day
10h 47m
Tomorrow will be 2m 21s shorter.
Waxing Crescent, 5% of the Moon is Illuminated
Today
Waxing Crescent
Oct 30
First Quarter
Nov 6
Full
Nov 14
Last Quarter
Nov 22
New

Today's Extremes

State Highs State Lows

Community

WunderPhotos

Upload Photos

1,765,091 photos uploaded!

Nearby

Air Quality

  Air Quality AQ Index Pollutant
Yesterday Moderate
PM2.5
Yesterday Good
OZONE
Current Moderate
PM2.5
Current Good
OZONE
Saturday Good
OZONE
Sunday Good
OZONE

Snow Depth

Station Depth Elevation
No new snow has been reported.

Earthquake Activity

City Distance Mag. Time & Date
No recent earthquake activity has been reported nearby.
Minimum magnitude displayed is 2.5.

Coastal Water Temperatures

Place Temperature
No Stations Reporting

Nearby Weather Stations